Weather at Nrh Fire Department Heliport

Public forecast

Using degrees Fahrenheit for public forecast. Weather courtesy of forecast.io.

Closest aviation weather report (METAR) to Nrh Fire Department Heliport

Closest report is Fort Worth Meacham International Airport, 7.1 nm (13.1 km) WSW.

2024/05/21 17:20 (retrieved 29 minutes ago)

KFTW 211720Z 18016G25KT 7SM SCT022 28/23 A2978 RMK AO2 T02780228

Closest aviation forecast (TAF) to Nrh Fire Department Heliport

Closest forecast is Fort Worth Meacham International Airport, 7.1 nm (13.1 km) WSW.

2024/05/21 15:52 Ammendment (retrieved 2 hours ago)

TAF AMD KFTW 211450Z 2115/2212 19014G24KT P6SM BKN025 FM211600 18017KT P6SM SCT035 FM212000 17015KT P6SM SCT050